Time;durP1;ratioP1;P1;durP2;ratioP2;P2;SDS_P1;SDS_P2;PMS_P1;PMS_P2;Temp;Humidity;BMP_temperature;BMP_pressure;BME280_temperature;BME280_humidity;BME280_pressure;Samples;Min_cycle;Max_cycle;Signal;HPM_P1;HPM_P2
2022/06/05 00:01:17;;;;;;;9.73;5.97;;;;;;;10.30;100.00;102187.22;5013468;28;20041;-74
2022/06/05 00:03:49;;;;;;;8.88;5.55;;;;;;;10.30;100.00;102193.38;5013379;28;20059;-74
2022/06/05 00:06:32;;;;;;;5.23;4.03;;;;;;;10.29;100.00;102182.81;5013197;28;20052;-75
2022/06/05 00:09:07;;;;;;;13.38;5.95;;;;;;;10.30;100.00;102203.94;5013031;28;20044;-75
2022/06/05 00:11:41;;;;;;;8.80;5.68;;;;;;;10.29;100.00;102199.56;5013174;28;20142;-75
2022/06/05 00:14:07;;;;;;;8.75;5.93;;;;;;;10.29;100.00;102188.97;5012249;28;20041;-74
2022/06/05 00:16:32;;;;;;;11.95;5.95;;;;;;;10.30;100.00;102184.56;5013254;28;20042;-75
2022/06/05 00:18:58;;;;;;;12.45;6.25;;;;;;;10.32;100.00;102183.63;5013411;28;20246;-74
2022/06/05 00:21:24;;;;;;;11.18;6.25;;;;;;;10.37;100.00;102164.09;5011004;28;20144;-74
2022/06/05 00:23:50;;;;;;;14.55;6.55;;;;;;;10.39;100.00;102151.69;5015972;28;20041;-75
2022/06/05 00:26:21;;;;;;;13.18;6.25;;;;;;;10.42;100.00;102144.59;5032330;28;20102;-74
2022/06/05 00:29:15;;;;;;;11.68;6.28;;;;;;;10.47;100.00;102157.75;5031402;28;20061;-74
2022/06/05 00:31:59;;;;;;;;;;;;;;;10.49;100.00;102139.13;5032602;28;20555;-74
2022/06/05 00:34:24;;;;;;;10.50;6.15;;;;;;;10.51;100.00;102137.34;5031223;28;19921;-74
2022/06/05 00:37:16;;;;;;;14.70;7.00;;;;;;;10.51;100.00;102129.41;5013830;28;20384;-74
2022/06/05 00:39:59;;;;;;;12.50;6.78;;;;;;;10.52;100.00;102123.19;5014601;28;20048;-74
2022/06/05 00:42:27;;;;;;;13.70;6.82;;;;;;;10.55;100.00;102123.09;5033077;28;20032;-73
2022/06/05 00:44:55;;;;;;;12.68;6.70;;;;;;;10.56;100.00;102114.25;5013870;28;20641;-74
2022/06/05 00:47:24;;;;;;;13.82;6.95;;;;;;;10.58;100.00;102113.31;5031163;28;20095;-74
2022/06/05 00:50:18;;;;;;;13.02;7.03;;;;;;;10.59;100.00;102103.59;5031451;28;20746;-74
2022/06/05 00:52:46;;;;;;;13.63;7.05;;;;;;;10.58;100.00;102104.50;5001535;28;20136;-74
2022/06/05 00:55:15;;;;;;;15.18;6.95;;;;;;;10.58;100.00;102096.56;5014139;28;20520;-74
2022/06/05 00:57:41;;;;;;;13.15;7.25;;;;;;;10.61;100.00;102099.13;5032706;28;20037;-74
2022/06/05 01:00:20;;;;;;;12.52;6.75;;;;;;;10.59;100.00;102099.16;5014602;28;20083;-74
2022/06/05 01:02:48;;;;;;;13.18;7.00;;;;;;;10.59;100.00;102088.56;4998394;28;20538;-74
2022/06/05 01:05:15;;;;;;;14.57;7.72;;;;;;;10.61;100.00;102080.59;5014576;28;20048;-73
2022/06/05 01:07:41;;;;;;;13.63;7.32;;;;;;;10.61;100.00;102083.22;5021507;28;20044;-74
2022/06/05 01:10:08;;;;;;;14.60;6.70;;;;;;;10.62;100.00;102084.13;4988754;28;20032;-74
2022/06/05 01:12:40;;;;;;;12.13;6.68;;;;;;;10.64;100.00;102083.16;4997559;28;20040;-73
2022/06/05 01:15:06;;;;;;;10.40;6.20;;;;;;;10.65;100.00;102084.00;5031036;28;20040;-74
2022/06/05 01:18:16;;;;;;;14.82;6.82;;;;;;;10.66;100.00;102089.28;5032405;28;20045;-73
2022/06/05 01:21:05;;;;;;;13.35;7.03;;;;;;;10.68;100.00;102083.97;5011851;28;20060;-74
2022/06/05 01:23:55;;;;;;;14.35;7.30;;;;;;;10.68;100.00;102079.50;5014098;28;20036;-74
2022/06/05 01:26:26;;;;;;;11.20;6.65;;;;;;;10.68;100.00;102076.84;5032224;28;20048;-74
2022/06/05 01:29:02;;;;;;;15.27;7.50;;;;;;;10.70;100.00;102080.38;5017457;28;20033;-73
2022/06/05 01:31:38;;;;;;;15.30;7.40;;;;;;;10.70;100.00;102085.66;5017591;28;20163;-74
2022/06/05 01:34:09;;;;;;;12.05;6.70;;;;;;;10.67;100.00;102088.38;5017872;28;20643;-74
2022/06/05 01:36:42;;;;;;;15.52;7.30;;;;;;;10.67;100.00;102080.44;5035205;28;20037;-74
2022/06/05 01:39:14;;;;;;;13.25;7.28;;;;;;;10.68;100.00;102081.31;5034669;28;20037;-74
2022/06/05 01:41:48;;;;;;;14.27;6.68;;;;;;;10.69;100.00;102075.94;5017658;28;20068;-73
2022/06/05 01:44:18;;;;;;;12.25;7.10;;;;;;;10.68;100.00;102066.25;5015770;28;20040;-74
2022/06/05 01:46:43;;;;;;;12.63;6.95;;;;;;;10.73;100.00;102068.78;5000321;28;20060;-73
2022/06/05 01:49:20;;;;;;;14.70;7.63;;;;;;;10.72;100.00;102065.28;5008895;28;20115;-74
2022/06/05 01:52:07;;;;;;;12.90;7.35;;;;;;;10.72;100.00;102054.69;5017505;28;20094;-74
2022/06/05 01:54:37;;;;;;;12.20;6.22;;;;;;;10.73;100.00;102058.19;5017951;28;20054;-75
2022/06/05 01:57:05;;;;;;;16.02;6.68;;;;;;;10.72;100.00;102054.69;5033732;28;20045;-74
2022/06/05 01:59:37;;;;;;;12.70;6.78;;;;;;;10.73;100.00;102048.47;5034328;28;20463;-74
2022/06/05 02:02:04;;;;;;;12.32;6.50;;;;;;;10.78;100.00;102042.19;5016918;28;21659;-74
2022/06/05 02:04:58;;;;;;;13.60;6.47;;;;;;;10.77;100.00;102043.09;5018000;28;20029;-74
2022/06/05 02:07:30;;;;;;;12.32;6.53;;;;;;;10.77;100.00;102032.50;5015178;28;20059;-74
2022/06/05 02:10:03;;;;;;;12.90;6.15;;;;;;;10.78;100.00;102021.00;5017452;28;20037;-74
2022/06/05 02:12:29;;;;;;;12.05;6.43;;;;;;;10.79;100.00;102026.25;5035148;28;20188;-74
2022/06/05 02:14:55;;;;;;;10.35;6.32;;;;;;;10.80;100.00;102027.13;5017571;28;20995;-74
2022/06/05 02:17:20;;;;;;;13.55;6.40;;;;;;;10.80;100.00;102022.72;5017267;28;20095;-74
2022/06/05 02:19:46;;;;;;;12.30;6.55;;;;;;;10.80;100.00;102021.81;5000453;28;20499;-74
2022/06/05 02:22:20;;;;;;;11.07;6.13;;;;;;;10.80;100.00;102024.47;5033634;28;20713;-74
2022/06/05 02:24:46;;;;;;;10.60;6.10;;;;;;;10.80;100.00;102024.47;5004395;28;21658;-74
2022/06/05 02:27:12;;;;;;;12.30;6.40;;;;;;;10.80;100.00;102012.13;5014388;28;20156;-73
2022/06/05 02:29:38;;;;;;;10.57;6.13;;;;;;;10.81;100.00;102010.31;4997132;28;20124;-74
2022/06/05 02:32:17;;;;;;;12.45;6.20;;;;;;;10.79;100.00;102010.34;5030876;28;20030;-74
2022/06/05 02:35:17;;;;;;;12.18;6.25;;;;;;;10.80;100.00;102000.63;5014666;28;20120;-73
2022/06/05 02:37:52;;;;;;;10.60;5.65;;;;;;;10.82;100.00;101999.69;5021026;28;20042;-73
2022/06/05 02:40:26;;;;;;;14.85;6.10;;;;;;;10.82;100.00;101998.81;5013333;28;20183;-73
2022/06/05 02:43:12;;;;;;;10.80;5.57;;;;;;;10.80;100.00;101990.03;5013984;28;20041;-73
2022/06/05 02:45:41;;;;;;;11.85;5.90;;;;;;;10.77;100.00;102001.59;5010887;28;21799;-73
2022/06/05 02:48:27;;;;;;;8.65;5.60;;;;;;;10.79;100.00;101993.59;5004783;28;20049;-73
2022/06/05 02:51:07;;;;;;;10.88;5.85;;;;;;;10.80;100.00;101995.34;5011530;28;20056;-73
2022/06/05 02:53:57;;;;;;;11.60;5.45;;;;;;;10.77;100.00;101987.47;5012519;28;20045;-73
2022/06/05 02:56:25;;;;;;;10.20;5.82;;;;;;;10.79;100.00;101988.31;5013318;28;20542;-74
2022/06/05 02:58:51;;;;;;;15.75;6.25;;;;;;;10.79;100.00;101985.66;5013011;28;20037;-73
2022/06/05 03:04:02;;;;;;;11.00;5.82;;;;;;;10.81;100.00;101983.81;5026774;28;20033;-74
2022/06/05 03:06:33;;;;;;;9.18;5.53;;;;;;;10.81;100.00;101971.47;5020411;28;20033;-73
2022/06/05 03:08:58;;;;;;;11.13;5.47;;;;;;;10.82;100.00;101957.31;5014959;28;20048;-74
2022/06/05 03:11:24;;;;;;;9.55;5.32;;;;;;;10.83;100.00;101961.69;5012523;28;20588;-73
2022/06/05 03:13:50;;;;;;;12.85;5.90;;;;;;;10.85;100.00;101957.19;5014612;28;20032;-73
2022/06/05 03:16:15;;;;;;;15.10;6.38;;;;;;;10.85;100.00;101940.44;5028735;28;20041;-73
2022/06/05 03:18:41;;;;;;;9.70;5.53;;;;;;;10.85;100.00;101932.50;5014331;28;20116;-74
2022/06/05 03:21:07;;;;;;;11.32;6.10;;;;;;;10.86;100.00;101937.72;5012862;28;20033;-73
2022/06/05 03:23:33;;;;;;;12.70;7.00;;;;;;;10.90;100.00;101942.97;5029363;28;20779;-74
2022/06/05 03:25:59;;;;;;;14.68;7.20;;;;;;;10.91;100.00;101936.75;5012531;28;20073;-74
2022/06/05 03:28:25;;;;;;;9.90;5.75;;;;;;;10.94;100.00;101928.69;5012212;28;21216;-73
2022/06/05 03:30:50;;;;;;;10.75;5.97;;;;;;;10.96;100.00;101918.94;5014320;28;20111;-74
2022/06/05 03:33:17;;;;;;;9.45;5.47;;;;;;;10.98;100.00;101917.97;5028593;28;20240;-73
2022/06/05 03:35:44;;;;;;;10.05;5.97;;;;;;;11.00;100.00;101902.00;5013695;28;20590;-74
2022/06/05 03:38:11;;;;;;;13.52;6.40;;;;;;;11.02;100.00;101901.97;5029535;28;20118;-73
2022/06/05 03:40:40;;;;;;;9.90;5.82;;;;;;;11.04;100.00;101902.78;5011983;28;20454;-73
2022/06/05 03:43:05;;;;;;;10.23;5.18;;;;;;;11.06;100.00;101898.34;5028947;28;20030;-74
2022/06/05 03:45:31;;;;;;;12.82;6.00;;;;;;;11.07;100.00;101898.25;5011420;28;20044;-73
2022/06/05 03:47:56;;;;;;;12.02;6.43;;;;;;;11.09;100.00;101899.09;5013859;28;20622;-73
2022/06/05 03:50:22;;;;;;;8.75;6.18;;;;;;;11.11;100.00;101889.31;5011243;28;20034;-73
2022/06/05 03:52:48;;;;;;;13.65;6.00;;;;;;;11.16;100.00;101869.75;5012122;28;20488;-74
2022/06/05 03:55:16;;;;;;;11.18;5.93;;;;;;;11.17;100.00;101872.34;5013139;28;20037;-73
2022/06/05 03:57:42;;;;;;;12.82;6.13;;;;;;;11.20;100.00;101876.69;5014066;28;20087;-73
2022/06/05 04:00:09;;;;;;;12.15;6.35;;;;;;;11.22;100.00;101880.16;5013516;28;20034;-74
2022/06/05 04:02:35;;;;;;;11.50;6.45;;;;;;;11.24;100.00;101867.72;4985978;28;20021;-73
2022/06/05 04:05:02;;;;;;;13.45;6.68;;;;;;;11.27;100.00;101872.91;5028942;28;20397;-73
2022/06/05 04:07:28;;;;;;;12.30;6.93;;;;;;;11.31;100.00;101873.69;5012003;28;20061;-74
2022/06/05 04:09:53;;;;;;;12.85;7.20;;;;;;;11.34;100.00;101873.59;5012937;28;20133;-74
2022/06/05 04:12:19;;;;;;;15.90;6.22;;;;;;;11.36;100.00;101871.75;5013014;28;20029;-74
2022/06/05 04:14:44;;;;;;;13.93;6.70;;;;;;;11.39;100.00;101880.47;5014221;28;20064;-74
2022/06/05 04:17:10;;;;;;;12.00;7.18;;;;;;;11.43;100.00;101867.13;5014099;28;20271;-74
2022/06/05 04:19:36;;;;;;;12.85;6.82;;;;;;;11.44;100.00;101859.13;4994682;28;20034;-75
2022/06/05 04:22:01;;;;;;;12.85;6.95;;;;;;;11.48;100.00;101852.81;5011694;28;20052;-74
2022/06/05 04:24:27;;;;;;;12.88;6.75;;;;;;;11.51;100.00;101852.69;5027402;28;20055;-74
2022/06/05 04:26:53;;;;;;;14.32;6.78;;;;;;;11.54;100.00;101849.94;5013299;28;20672;-74
2022/06/05 04:29:18;;;;;;;11.43;6.57;;;;;;;11.59;100.00;101856.91;5012247;28;20046;-74
2022/06/05 04:31:48;;;;;;;13.35;7.10;;;;;;;11.63;100.00;101859.38;5012929;28;20044;-74
2022/06/05 04:34:20;;;;;;;13.63;7.35;;;;;;;11.68;100.00;101851.25;5019732;28;20087;-74
2022/06/05 04:36:46;;;;;;;12.90;7.40;;;;;;;11.75;100.00;101843.94;5012494;28;20100;-74
2022/06/05 04:39:12;;;;;;;16.30;7.90;;;;;;;11.77;100.00;101835.03;5013303;28;20131;-74
2022/06/05 04:41:39;;;;;;;12.45;6.63;;;;;;;11.79;100.00;101840.28;5027409;28;20136;-74
2022/06/05 04:44:06;;;;;;;15.57;6.75;;;;;;;11.82;100.00;101840.16;5013275;28;20113;-74
2022/06/05 04:46:32;;;;;;;15.70;7.10;;;;;;;11.85;100.00;101836.53;5018805;28;20586;-74
2022/06/05 04:48:58;;;;;;;16.85;7.28;;;;;;;11.86;100.00;101839.16;5012974;28;20396;-73
2022/06/05 04:51:24;;;;;;;11.23;6.63;;;;;;;11.88;100.00;101839.09;5013516;28;20032;-74
2022/06/05 04:53:51;;;;;;;13.25;6.72;;;;;;;11.91;100.00;101831.91;5010861;28;20052;-73
2022/06/05 04:56:20;;;;;;;13.18;7.10;;;;;;;11.94;100.00;101839.75;5019623;28;20092;-73
2022/06/05 04:58:45;;;;;;;14.50;7.60;;;;;;;11.98;100.00;101847.59;5010926;28;20847;-73
2022/06/05 05:01:23;;;;;;;15.50;6.43;;;;;;;12.00;100.00;101838.69;5012945;28;20464;-74
2022/06/05 05:03:52;;;;;;;11.82;7.20;;;;;;;12.06;100.00;101841.16;5015723;28;20037;-74
2022/06/05 05:06:18;;;;;;;14.05;7.05;;;;;;;12.14;100.00;101832.88;5015198;28;20488;-74
2022/06/05 05:08:44;;;;;;;15.07;7.28;;;;;;;12.18;100.00;101829.22;4998917;28;20158;-74
2022/06/05 05:11:09;;;;;;;12.50;7.68;;;;;;;12.26;100.00;101836.03;5015854;28;20185;-73
2022/06/05 05:13:35;;;;;;;12.88;6.88;;;;;;;12.34;100.00;101828.63;5015304;28;21950;-73
2022/06/05 05:16:01;;;;;;;10.40;6.68;;;;;;;12.39;100.00;101831.13;5014541;28;20037;-74
2022/06/05 05:18:26;;;;;;;14.07;7.05;;;;;;;12.46;100.00;101830.84;5016543;28;20037;-73
2022/06/05 05:20:52;;;;;;;10.23;5.93;;;;;;;12.50;100.00;101824.47;5014752;28;20076;-75
2022/06/05 05:23:21;;;;;;;12.43;6.50;;;;;;;12.55;100.00;101826.97;5016339;28;20091;-74
2022/06/05 05:25:47;;;;;;;13.25;7.68;;;;;;;12.57;100.00;101827.78;5022244;28;20053;-74
2022/06/05 05:28:13;;;;;;;12.00;6.82;;;;;;;12.63;100.00;101814.25;5016293;28;20098;-75
2022/06/05 05:30:44;;;;;;;9.13;6.03;;;;;;;12.70;100.00;101811.38;5022761;28;20144;-75
2022/06/05 05:33:09;;;;;;;12.60;7.40;;;;;;;12.74;100.00;101807.63;5016484;28;20033;-74
2022/06/05 05:35:35;;;;;;;12.18;6.47;;;;;;;12.77;100.00;101815.50;5016691;28;20080;-74
2022/06/05 05:38:00;;;;;;;11.90;7.00;;;;;;;12.80;100.00;101814.53;5031554;28;20048;-74
2022/06/05 05:43:10;;;;;;;11.15;6.85;;;;;;;12.83;100.00;101809.06;5016206;28;20033;-74
2022/06/05 05:45:35;;;;;;;11.40;7.10;;;;;;;12.85;100.00;101824.03;5030678;28;20512;-74
2022/06/05 05:48:01;;;;;;;11.88;6.57;;;;;;;12.89;100.00;101830.97;5015846;28;20480;-74
2022/06/05 05:50:26;;;;;;;11.35;6.50;;;;;;;12.92;100.00;101829.13;5015816;28;20124;-75
2022/06/05 05:52:52;;;;;;;12.23;6.68;;;;;;;12.90;100.00;101816.75;5015956;28;20048;-75
2022/06/05 05:55:19;;;;;;;11.25;7.30;;;;;;;12.96;100.00;101814.78;5014434;28;20114;-73
2022/06/05 05:57:49;;;;;;;9.60;6.40;;;;;;;12.97;100.00;101805.88;5031328;28;20041;-74
2022/06/05 06:00:17;;;;;;;12.75;7.70;;;;;;;13.02;100.00;101820.69;5014350;28;20044;-75
2022/06/05 06:02:43;;;;;;;12.18;6.95;;;;;;;13.07;100.00;101817.84;5013783;28;20186;-74
2022/06/05 06:05:13;;;;;;;10.30;6.40;;;;;;;13.11;100.00;101813.28;5030845;28;21385;-74
2022/06/05 06:07:39;;;;;;;10.85;7.00;;;;;;;13.14;100.00;101810.50;5004898;28;20868;-75
2022/06/05 06:10:07;;;;;;;10.80;6.72;;;;;;;13.16;100.00;101804.22;5015570;28;20040;-75
2022/06/05 06:12:33;;;;;;;11.25;6.30;;;;;;;13.21;100.00;101804.00;5013929;28;20373;-74
2022/06/05 06:14:58;;;;;;;11.07;6.80;;;;;;;13.23;100.00;101796.81;5015415;28;20060;-74
2022/06/05 06:17:24;;;;;;;10.20;6.20;;;;;;;13.26;100.00;101796.72;5015335;28;20044;-74
2022/06/05 06:19:50;;;;;;;13.10;7.10;;;;;;;13.32;100.00;101795.59;4997164;28;20025;-74
2022/06/05 06:22:16;;;;;;;9.95;6.57;;;;;;;13.37;100.00;101784.75;5013903;28;20227;-74
2022/06/05 06:24:41;;;;;;;10.38;6.78;;;;;;;13.42;100.00;101774.78;5029501;28;20146;-74
2022/06/05 06:27:06;;;;;;;11.57;6.63;;;;;;;13.44;100.00;101776.44;5030292;28;20037;-74
2022/06/05 06:29:32;;;;;;;12.63;6.82;;;;;;;13.49;100.00;101768.31;5030074;28;20033;-74
2022/06/05 06:31:57;;;;;;;10.70;6.78;;;;;;;13.55;100.00;101776.03;5015028;28;20422;-73
2022/06/05 06:34:24;;;;;;;11.75;7.13;;;;;;;13.58;100.00;101770.56;5015442;28;20045;-73
2022/06/05 06:36:49;;;;;;;14.13;7.07;;;;;;;13.64;100.00;101768.56;5030034;28;20396;-74
2022/06/05 06:39:15;;;;;;;12.25;7.15;;;;;;;13.71;100.00;101767.34;5015184;28;20037;-74
2022/06/05 06:41:41;;;;;;;13.32;7.97;;;;;;;13.76;100.00;101767.16;5030074;28;20048;-74
2022/06/05 06:44:06;;;;;;;10.98;6.90;;;;;;;13.78;100.00;101758.16;5014749;28;20560;-74
2022/06/05 06:46:32;;;;;;;11.27;6.40;;;;;;;13.84;100.00;101759.72;5014088;28;20099;-75
2022/06/05 06:48:58;;;;;;;11.75;6.20;;;;;;;13.90;100.00;101755.91;5029352;28;20057;-74
2022/06/05 06:51:23;;;;;;;10.48;6.32;;;;;;;13.94;100.00;101755.69;5015067;28;20079;-74
2022/06/05 06:53:49;;;;;;;9.73;6.22;;;;;;;14.01;100.00;101758.06;4996424;28;20688;-74
2022/06/05 06:56:27;;;;;;;12.20;6.47;;;;;;;14.09;100.00;101766.56;5029646;28;20033;-75
2022/06/05 06:58:54;;;;;;;13.50;6.75;;;;;;;14.17;100.00;101766.22;5029103;28;20045;-75
2022/06/05 07:01:19;;;;;;;8.32;6.45;;;;;;;14.25;100.00;101770.28;5029847;28;20037;-74
2022/06/05 07:03:45;;;;;;;11.10;7.13;;;;;;;14.35;100.00;101775.16;5012950;28;20090;-75
2022/06/05 07:06:13;;;;;;;10.88;6.28;;;;;;;14.47;100.00;101774.59;5029459;28;20046;-75
2022/06/05 07:08:39;;;;;;;9.20;6.68;;;;;;;14.57;100.00;101760.81;4980404;28;21156;-75
2022/06/05 07:11:07;;;;;;;8.75;5.80;;;;;;;14.65;100.00;101767.50;5012279;28;20121;-74
2022/06/05 07:13:33;;;;;;;9.95;6.57;;;;;;;14.75;100.00;101762.63;4987496;28;20033;-75
2022/06/05 07:15:59;;;;;;;11.20;6.43;;;;;;;14.86;100.00;101758.59;5012440;28;20029;-75
2022/06/05 07:18:24;;;;;;;10.68;6.18;;;;;;;14.94;100.00;101751.94;5014440;28;20040;-75
2022/06/05 07:20:50;;;;;;;9.73;6.18;;;;;;;15.03;100.00;101750.63;5013097;28;20442;-73
2022/06/05 07:23:16;;;;;;;9.23;5.97;;;;;;;15.15;100.00;101748.28;5013967;28;20041;-73
2022/06/05 07:25:51;;;;;;;9.88;6.22;;;;;;;15.25;100.00;101743.34;5027139;28;20102;-73
2022/06/05 07:28:17;;;;;;;8.63;6.25;;;;;;;15.39;100.00;101740.81;5015230;28;20500;-72
2022/06/05 07:30:48;;;;;;;8.88;6.10;;;;;;;15.56;100.00;101742.63;5023070;28;20036;-73
2022/06/05 07:33:13;;;;;;;9.15;5.85;;;;;;;15.72;100.00;101739.13;5032048;28;20032;-73
2022/06/05 07:35:40;;;;;;;11.27;6.72;;;;;;;15.86;100.00;101731.25;4999682;28;20041;-74
2022/06/05 07:38:05;;;;;;;10.18;6.60;;;;;;;15.99;100.00;101717.25;5016017;28;20037;-74
2022/06/05 07:40:31;;;;;;;8.65;5.72;;;;;;;16.14;100.00;101720.91;5015199;28;20055;-74
2022/06/05 07:42:56;;;;;;;8.25;5.80;;;;;;;16.27;100.00;101716.59;5016161;28;20021;-75
2022/06/05 07:45:22;;;;;;;10.82;6.20;;;;;;;16.41;100.00;101702.44;4998850;28;20051;-74
2022/06/05 07:47:47;;;;;;;9.43;5.80;;;;;;;16.53;100.00;101703.59;5034242;28;20041;-74
2022/06/05 07:50:13;;;;;;;10.32;5.93;;;;;;;16.63;100.00;101703.94;5033636;28;20028;-74
2022/06/05 07:55:23;;;;;;;9.50;6.20;;;;;;;16.91;100.00;101698.75;5033381;28;21386;-74
2022/06/05 07:57:49;;;;;;;8.60;5.93;;;;;;;17.06;98.27;101697.88;5032412;28;20029;-74
2022/06/05 08:00:15;;;;;;;8.07;6.10;;;;;;;17.17;97.24;101699.06;5022445;28;20033;-74
2022/06/05 08:02:41;;;;;;;9.10;5.65;;;;;;;17.21;96.47;101690.75;5031861;28;20041;-74
2022/06/05 08:05:07;;;;;;;9.30;5.60;;;;;;;17.22;96.46;101687.13;5033499;28;20028;-74
2022/06/05 08:07:33;;;;;;;7.53;5.93;;;;;;;17.33;96.93;101677.59;5031561;28;20029;-74
2022/06/05 08:10:00;;;;;;;8.05;5.28;;;;;;;17.35;94.39;101675.69;5032194;28;20076;-75
2022/06/05 08:12:29;;;;;;;7.53;5.95;;;;;;;17.33;93.07;101675.75;5015130;28;20052;-73
2022/06/05 08:14:55;;;;;;;7.50;5.35;;;;;;;17.32;94.10;101659.81;5032947;28;20501;-74
2022/06/05 08:17:23;;;;;;;8.18;5.47;;;;;;;17.28;93.36;101671.66;5015564;28;20040;-74
2022/06/05 08:19:49;;;;;;;7.68;5.50;;;;;;;17.26;93.48;101661.03;5014661;28;20032;-74
2022/06/05 08:22:16;;;;;;;7.63;4.82;;;;;;;17.32;94.51;101651.78;5033088;28;20041;-74
2022/06/05 08:24:42;;;;;;;6.95;5.82;;;;;;;17.38;94.19;101654.94;5027710;28;20463;-73
2022/06/05 08:27:10;;;;;;;7.63;5.80;;;;;;;17.45;94.13;101647.41;5002870;28;20049;-74
2022/06/05 08:29:35;;;;;;;7.78;5.50;;;;;;;17.53;93.77;101643.38;5027621;28;20689;-73
2022/06/05 08:32:01;;;;;;;7.07;4.93;;;;;;;17.50;90.66;101647.97;5011550;28;20049;-74
2022/06/05 08:34:26;;;;;;;7.60;5.28;;;;;;;17.47;91.04;101636.59;5019190;28;20052;-73
2022/06/05 08:41:26;;;;;;;7.15;5.40;;;;;;;17.49;91.98;101627.50;5012212;28;20033;-74
2022/06/05 08:42:33;;;;;;;7.80;5.13;;;;;;;17.63;90.65;101615.06;5012990;28;20131;-74
2022/06/05 08:45:02;;;;;;;7.53;5.47;;;;;;;17.68;91.45;101615.66;5013225;28;20048;-74
2022/06/05 08:47:31;;;;;;;8.10;5.95;;;;;;;17.74;91.08;101606.34;5013311;28;20037;-73
2022/06/05 08:50:18;;;;;;;7.07;5.22;;;;;;;17.83;90.80;101597.75;4984846;28;20108;-74
2022/06/05 08:52:58;;;;;;;8.82;5.65;;;;;;;17.94;89.63;101590.81;4994037;28;20028;-74
2022/06/05 08:55:38;;;;;;;9.63;5.30;;;;;;;18.04;88.33;101597.31;5002580;28;20124;-74
2022/06/05 08:58:23;;;;;;;6.25;5.18;;;;;;;18.12;89.75;101596.81;5028062;28;20216;-73
2022/06/05 09:00:52;;;;;;;7.30;5.32;;;;;;;18.22;90.90;101595.25;5027244;28;20052;-73
2022/06/05 09:03:36;;;;;;;7.30;5.30;;;;;;;18.29;87.12;101588.53;5028430;28;20037;-74
2022/06/05 09:06:25;;;;;;;6.90;5.15;;;;;;;18.33;88.59;101586.50;5010748;28;20122;-74
2022/06/05 09:08:55;;;;;;;7.22;5.28;;;;;;;18.37;87.79;101579.13;5011957;28;20084;-74
2022/06/05 09:11:26;;;;;;;6.30;4.97;;;;;;;18.48;88.36;101576.59;5027966;28;20029;-75
2022/06/05 09:14:18;;;;;;;7.50;5.40;;;;;;;18.53;86.61;101571.75;5011414;28;20091;-73
2022/06/05 09:16:51;;;;;;;7.78;5.22;;;;;;;18.56;86.18;101576.03;5002178;28;20448;-74
2022/06/05 09:19:20;;;;;;;6.22;5.18;;;;;;;18.59;87.75;101568.66;5010684;28;20048;-74
2022/06/05 09:21:51;;;;;;;6.15;4.75;;;;;;;18.59;85.81;101567.81;5011506;28;20025;-74
2022/06/05 09:24:55;;;;;;;7.13;5.13;;;;;;;18.64;84.47;101556.75;5005785;28;20177;-74
2022/06/05 09:27:24;;;;;;;7.63;4.88;;;;;;;18.76;87.07;101547.00;5003253;28;20056;-74
2022/06/05 09:29:52;;;;;;;8.52;4.93;;;;;;;18.94;87.55;101558.28;5031855;28;20060;-74
2022/06/05 09:32:39;;;;;;;7.88;5.10;;;;;;;19.13;85.33;101553.38;5022002;28;20114;-74
2022/06/05 09:35:11;;;;;;;6.40;5.03;;;;;;;19.23;85.74;101536.63;5031978;28;20569;-74
2022/06/05 09:37:44;;;;;;;8.90;4.80;;;;;;;19.27;85.16;101538.09;5032506;28;20048;-74
2022/06/05 09:40:59;;;;;;;7.80;5.25;;;;;;;19.26;81.96;101533.72;5013904;28;20415;-74
2022/06/05 09:43:30;;;;;;;7.30;5.07;;;;;;;19.25;85.34;101535.56;4964638;28;20593;-74
2022/06/05 09:46:15;;;;;;;7.03;5.05;;;;;;;19.24;84.80;101531.13;5032041;28;21746;-74
2022/06/05 09:49:01;;;;;;;7.63;5.40;;;;;;;19.29;84.82;101535.31;5032715;28;20079;-73
2022/06/05 09:51:27;;;;;;;6.28;4.63;;;;;;;19.32;84.82;101521.66;5018254;28;20032;-73
2022/06/05 09:54:00;;;;;;;5.82;5.22;;;;;;;19.31;82.67;101514.59;5024280;28;20028;-74
2022/06/05 09:56:34;;;;;;;8.32;5.38;;;;;;;19.31;84.05;101517.28;5018277;28;21348;-74
2022/06/05 09:59:17;;;;;;;6.88;5.38;;;;;;;19.29;82.30;101519.22;5033776;28;20083;-74
2022/06/05 10:01:54;;;;;;;8.32;5.38;;;;;;;19.27;83.06;101528.25;5017989;28;20029;-75
2022/06/05 10:04:20;;;;;;;6.93;5.53;;;;;;;19.25;83.97;101518.56;5017446;28;20155;-74
2022/06/05 10:06:51;;;;;;;7.30;5.55;;;;;;;19.24;83.18;101514.19;5017672;28;20112;-73
2022/06/05 10:09:27;;;;;;;6.78;5.25;;;;;;;19.25;83.15;101521.25;5017011;28;20040;-73
2022/06/05 10:12:07;;;;;;;6.68;5.13;;;;;;;19.23;82.94;101516.00;5017521;28;20036;-73
2022/06/05 10:14:50;;;;;;;6.55;5.43;;;;;;;19.25;83.86;101513.22;5016485;28;20455;-74
2022/06/05 10:17:31;;;;;;;7.35;5.35;;;;;;;19.26;82.97;101510.44;5025415;28;20181;-74
2022/06/05 10:20:05;;;;;;;7.80;5.28;;;;;;;19.29;84.09;101520.09;5035492;28;20037;-74
2022/06/05 10:22:40;;;;;;;7.03;4.93;;;;;;;19.31;83.84;101510.09;5035459;28;20033;-74
2022/06/05 10:25:34;;;;;;;7.55;4.88;;;;;;;19.31;83.83;101515.47;5035462;28;20045;-74
2022/06/05 10:28:21;;;;;;;9.30;5.68;;;;;;;19.31;83.94;101507.41;5016550;28;20124;-74
2022/06/05 10:31:03;;;;;;;6.60;5.45;;;;;;;19.33;82.85;101500.09;5017238;28;20675;-74
2022/06/05 10:33:48;;;;;;;6.28;5.30;;;;;;;19.35;83.02;101500.81;5034815;28;20032;-73
2022/06/05 10:36:20;;;;;;;6.60;5.43;;;;;;;19.37;84.18;101498.91;5017490;28;20033;-74
2022/06/05 10:39:07;;;;;;;7.63;5.32;;;;;;;19.43;82.89;101499.44;5007345;28;20043;-75
2022/06/05 10:41:42;;;;;;;7.30;5.20;;;;;;;19.47;83.99;101498.22;5033219;28;20032;-75
2022/06/05 10:44:36;;;;;;;6.85;5.60;;;;;;;19.50;83.02;101498.03;5000587;28;20029;-73
2022/06/05 10:47:12;;;;;;;6.00;5.20;;;;;;;19.55;82.62;101490.47;5032650;28;20056;-74
2022/06/05 10:49:41;;;;;;;7.45;5.88;;;;;;;19.59;83.97;101494.66;5017003;28;20116;-74
2022/06/05 10:52:19;;;;;;;7.88;5.30;;;;;;;19.62;83.23;101494.41;5015498;28;20120;-75
2022/06/05 10:55:05;;;;;;;6.95;5.60;;;;;;;19.67;82.69;101497.63;5017101;28;20072;-75
2022/06/05 10:57:39;;;;;;;6.30;5.28;;;;;;;19.74;82.70;101499.84;5016262;28;20045;-74
2022/06/05 11:00:21;;;;;;;8.48;5.53;;;;;;;19.83;81.61;101501.00;5033929;28;20044;-74
2022/06/05 11:03:11;;;;;;;6.50;4.75;;;;;;;19.90;81.70;101492.38;5016759;28;20033;-74
2022/06/05 11:05:46;;;;;;;6.03;4.60;;;;;;;19.97;82.59;101478.47;5016152;28;20025;-74
2022/06/05 11:08:28;;;;;;;5.57;4.88;;;;;;;20.02;81.39;101482.56;5034301;28;20029;-74
2022/06/05 11:14:12;;;;;;;6.82;4.88;;;;;;;20.13;80.71;101481.72;5019309;28;19966;-74
2022/06/05 11:16:50;;;;;;;6.10;4.93;;;;;;;20.18;81.32;101482.25;5016391;28;20068;-75
2022/06/05 11:19:30;;;;;;;6.28;5.43;;;;;;;20.22;81.66;101470.28;5034357;28;21834;-75
2022/06/05 11:21:57;;;;;;;8.13;5.22;;;;;;;20.27;81.81;101466.38;5033882;28;20483;-74
2022/06/05 11:24:29;;;;;;;6.55;5.18;;;;;;;20.29;80.80;101462.59;5033787;28;20064;-75
2022/06/05 11:27:09;;;;;;;6.13;5.00;;;;;;;20.30;81.58;101455.38;5033067;28;20364;-75
2022/06/05 11:29:56;;;;;;;5.53;4.88;;;;;;;20.29;80.43;101448.28;5015440;28;20119;-74
2022/06/05 11:32:28;;;;;;;6.68;4.75;;;;;;;20.28;81.44;101442.06;5023960;28;20045;-75
2022/06/05 11:35:15;;;;;;;6.72;5.03;;;;;;;20.27;79.16;101432.28;5015574;28;20032;-75
2022/06/05 11:37:49;;;;;;;6.63;4.88;;;;;;;20.28;81.64;101431.31;5033892;28;20049;-75
2022/06/05 11:40:37;;;;;;;8.38;5.28;;;;;;;20.28;81.18;101435.84;5032143;28;20478;-75
2022/06/05 11:43:03;;;;;;;6.22;4.97;;;;;;;20.30;81.87;101433.88;5033959;28;20041;-75
2022/06/05 11:45:59;;;;;;;6.32;4.63;;;;;;;20.29;80.83;101429.47;5033403;28;20064;-74
2022/06/05 11:49:07;;;;;;;6.10;4.78;;;;;;;20.30;81.52;101433.88;5017530;28;20045;-75